Flight Track Log - Related Links

Times and Time Zones

All times are in EDT time to prevent confusion due to time zone crossing. See the JST762 flight status page for this flight to view local times or setup timezone preferences in your user account.

Time Position Orientation Groundspeed Altitude Reporting Facility
EDT Latitude Longitude Course Direction KTS MPH feet Rate Location/Type
Thu 04:33:32 PM -33.9513 151.1121 17° North  Level FlightAware Approximate
Thu 04:35:01 PM -33.9042 151.1297 303° West 182 209 3,400  Level Aus ATC (RADAR)
Thu 04:36:21 PM -33.8591 151.0468 285° West 242 278 6,900 3,086 Climbing Aus ATC (RADAR)
Thu 04:37:21 PM -33.8389 150.9592 254° West 274 315 10,600 3,387 Climbing Aus ATC (RADAR)
Thu 04:38:25 PM -33.8661 150.8474 265° West 310 357 13,900 3,387 Climbing Aus ATC (RADAR)
Thu 04:39:25 PM -33.8728 150.7475 271° West 274 315 17,600 2,714 Climbing Aus ATC (RADAR)
Thu 04:40:31 PM -33.8713 150.6385 270° West 295 339 19,600 1,941 Climbing Aus ATC (RADAR)
Thu 04:41:41 PM -33.8706 150.5136 270° West 311 358 22,000 1,822 Climbing Aus ATC (RADAR)
Thu 04:42:46 PM -33.8706 150.3882 270° West 337 388 23,700 1,694 Climbing Aus ATC (RADAR)
Thu 04:43:45 PM -33.8698 150.2678 271° West 347 399 25,500 1,694 Climbing Aus ATC (RADAR)
Thu 04:44:50 PM -33.8684 150.1325 270° West 364 419 27,200 1,632 Climbing Aus ATC (RADAR)
Thu 04:45:50 PM -33.8675 150.0035 271° West 373 429 28,900 2,010 Climbing Aus ATC (RADAR)
Thu 04:48:01 PM -33.8652 149.7456 265° West 330 380 33,600 1,631 Climbing Aus ATC (RADAR)
Thu 04:49:05 PM -33.8756 149.6145 236° Southwest 367 422 34,200 1,079 Climbing Aus ATC (RADAR)
Thu 04:50:20 PM -33.9603 149.4654 237° Southwest 424 488 36,100 1,629 Climbing Aus ATC (RADAR)
Thu 04:51:25 PM -34.0225 149.3512 263° West 351 404 38,000 877 Climbing Aus ATC (RADAR)
Thu 04:52:30 PM -34.0353 149.2304 262° West 331 381 38,000  Level Aus ATC (RADAR)
Thu 04:53:30 PM -34.0489 149.1181 262° West 332 382 38,000  Level Aus ATC (RADAR)
Thu 04:54:35 PM -34.0627 148.9963 262° West 332 382 38,000 -46 Level Aus ATC (RADAR)
Thu 04:55:40 PM -34.0770 148.8740 262° West 333 383 37,900  Descending Aus ATC (RADAR)
Thu 04:56:45 PM -34.0912 148.7504 262° West 338 389 38,000 47 Climbing Aus ATC (RADAR)
Thu 04:57:49 PM -34.1051 148.6240 262° West 347 399 38,000  Level Aus ATC (RADAR)
Thu 04:58:53 PM -34.1198 148.4964 262° West 347 399 38,000  Level Aus ATC (RADAR)
Thu 04:59:54 PM -34.1327 148.3785 262° West 349 402 38,000  Level Aus ATC (RADAR)
Thu 05:01:18 PM -34.1514 148.2094 263° West 355 409 38,000  Level Aus ATC (RADAR)
Thu 05:02:14 PM -34.1634 148.0976 262° West 361 415 38,000  Level Aus ATC (RADAR)
Thu 05:02:58 PM -34.1737 148.0047 263° West 366 421 38,000  Level Aus ATC (RADAR)
Thu 05:03:54 PM -34.1857 147.8915 263° West 366 421 38,000  Level Aus ATC (RADAR)
Thu 05:04:34 PM -34.1945 147.8091 263° West 367 422 38,000  Level Aus ATC (RADAR)
Thu 05:06:19 PM -34.2176 147.5891 263° West 376 433 38,000  Level Aus ATC (RADAR)
Thu 05:07:14 PM -34.2298 147.4712 263° West 381 438 38,000  Level Aus ATC (RADAR)
Thu 05:07:58 PM -34.2400 147.3736 263° West 386 444 38,000  Level Aus ATC (RADAR)
Thu 05:08:33 PM -34.2477 147.2979 263° West 386 444 38,000  Level Aus ATC (RADAR)
Thu 05:09:08 PM -34.2554 147.2223 263° West 383 441 38,000  Level Aus ATC (RADAR)
Thu 05:09:38 PM -34.2621 147.1574 263° West 385 443 38,000  Level Aus ATC (RADAR)
Thu 05:11:03 PM -34.2805 146.9725 263° West 387 445 38,000  Level Aus ATC (RADAR)
Thu 05:11:48 PM -34.2902 146.8736 263° West 391 450 38,000  Level Aus ATC (RADAR)
Thu 05:12:23 PM -34.2976 146.7958 263° West 394 453 38,000  Level Aus ATC (RADAR)
Thu 05:13:08 PM -34.3077 146.6950 263° West 399 459 38,000  Level Aus ATC (RADAR)
Thu 05:14:02 PM -34.3198 146.5696 263° West 405 466 38,000  Level Aus ATC (RADAR)
Thu 05:14:49 PM -34.3298 146.4665 264° West 405 466 38,000  Level Aus ATC (RADAR)
Thu 05:16:02 PM -34.3451 146.2947 263° West 407 468 38,000  Level Aus ATC (RADAR)
Thu 05:16:47 PM -34.3550 146.1915 263° West 408 470 38,000  Level Aus ATC (RADAR)
Thu 05:17:27 PM -34.3636 146.0995 264° West 408 470 38,000  Level Aus ATC (RADAR)
Thu 05:18:12 PM -34.3730 145.9966 264° West 407 468 38,000  Level Aus ATC (RADAR)
Thu 05:18:47 PM -34.3803 145.9169 264° West 405 466 38,000 -75 Level Aus ATC (RADAR)
Thu 05:19:32 PM -34.3893 145.8139 264° West 408 470 37,900 38 Descending Aus ATC (RADAR)
Thu 05:21:27 PM -34.4124 145.5491 264° West 406 467 38,100 38 Climbing Aus ATC (RADAR)
Thu 05:22:11 PM -34.4220 145.4456 264° West 407 468 38,000 -75 Descending Aus ATC (RADAR)
Thu 05:22:47 PM -34.4282 145.3662 264° West 403 464 38,000  Level Aus ATC (RADAR)
Thu 05:23:27 PM -34.4361 145.2758 264° West 402 463 38,000  Level Aus ATC (RADAR)
Thu 05:24:01 PM -34.4429 145.1971 264° West 400 460 38,000  Level Aus ATC (RADAR)
Thu 05:24:37 PM -34.4492 145.1179 264° West 401 461 38,000 -86 Level Aus ATC (RADAR)
Thu 05:25:11 PM -34.4558 145.0389 264° West 402 463 37,900  Descending Aus ATC (RADAR)
Thu 05:26:26 PM -34.4700 144.8671 264° West 409 471 38,000 43 Climbing Aus ATC (RADAR)
Thu 05:27:31 PM -34.4819 144.7163 264° West 413 475 38,000  Level Aus ATC (RADAR)
Thu 05:28:11 PM -34.4896 144.6232 264° West 415 478 38,000  Level Aus ATC (RADAR)
Thu 05:28:46 PM -34.4962 144.5421 265° West 412 474 38,000  Level Aus ATC (RADAR)
Thu 05:29:21 PM -34.5022 144.4611 265° West 411 473 38,000  Level Aus ATC (RADAR)
Thu 05:29:56 PM -34.5085 144.3799 265° West 413 475 38,000 -87 Level Aus ATC (RADAR)
Thu 05:30:30 PM -34.5147 144.2992 265° West 410 472 37,900  Descending Aus ATC (RADAR)
Thu 05:31:41 PM -34.5271 144.1356 265° West 417 480 38,000 46 Climbing Aus ATC (RADAR)
Thu 05:32:40 PM -34.5374 143.9945 265° West 419 482 38,000  Level Aus ATC (RADAR)
Thu 05:33:26 PM -34.5454 143.8870 265° West 424 488 38,000  Level Aus ATC (RADAR)
Thu 05:34:01 PM -34.5515 143.8039 265° West 423 487 38,000  Level Aus ATC (RADAR)
Thu 05:34:36 PM -34.5577 143.7202 265° West 424 488 38,000 -60 Level Aus ATC (RADAR)
Thu 05:35:41 PM -34.5686 143.5667 265° West 421 484 37,900 -44 Descending Aus ATC (RADAR)
Thu 05:36:51 PM -34.5799 143.4005 265° West 424 488 37,900 -46 Level Aus ATC (RADAR)
Thu 05:37:51 PM -34.5894 143.2576 265° West 424 488 37,800  Descending Aus ATC (RADAR)
Thu 05:38:31 PM -34.5960 143.1617 265° West 426 490 37,900 81 Climbing Aus ATC (RADAR)
Thu 05:39:05 PM -34.6015 143.0776 265° West 427 491 37,900  Level Aus ATC (RADAR)
Thu 05:39:41 PM -34.6072 142.9939 265° West 426 490 37,900  Level Aus ATC (RADAR)
Thu 05:40:15 PM -34.6129 142.9101 265° West 425 489 37,900  Level Aus ATC (RADAR)
Thu 05:40:50 PM -34.6185 142.8266 266° West 424 488 37,900 176 Level Aus ATC (RADAR)
Thu 05:41:57 PM -34.6279 142.6714 266° West 424 488 38,200 144 Climbing Aus ATC (RADAR)
Thu 05:42:55 PM -34.6369 142.5282 266° West 425 489 38,200  Level Aus ATC (RADAR)
Thu 05:43:40 PM -34.6429 142.4208 266° West 424 488 38,200  Level Aus ATC (RADAR)
Thu 05:44:11 PM -34.6466 142.3492 266° West 425 489 38,200  Level Aus ATC (RADAR)
Thu 05:44:45 PM -34.6517 142.2655 266° West 424 488 38,200  Level Aus ATC (RADAR)
Thu 05:45:21 PM -34.6565 142.1821 266° West 422 486 38,200  Level Aus ATC (RADAR)
Thu 05:47:14 PM -34.6709 141.9069 266° West 427 491 38,200  Level Aus ATC (RADAR)
Thu 05:48:14 PM -34.6782 141.7622 266° West 430 495 38,200  Level Aus ATC (RADAR)
Thu 05:48:59 PM -34.6841 141.6537 266° West 429 494 38,200  Level Aus ATC (RADAR)
Thu 05:49:29 PM -34.6878 141.5814 267° West 428 493 38,200  Level Aus ATC (RADAR)
Thu 05:50:05 PM -34.6918 141.4964 266° West 431 496 38,200  Level Aus ATC (RADAR)
Thu 05:50:39 PM -34.6966 141.4116 267° West 430 495 38,200  Level Aus ATC (RADAR)
Thu 05:51:54 PM -34.7048 141.2296 266° West 431 496 38,200 -150 Level Aus ATC (RADAR)
Thu 05:52:39 PM -34.7103 141.1223 267° West 419 482 37,900 -1,125 Descending Aus ATC (RADAR)
Thu 05:53:14 PM -34.7139 141.0407 267° West 416 479 36,700 -2,127 Descending Aus ATC (RADAR)
Thu 05:53:58 PM -34.7185 140.9342 267° West 422 486 35,100 -2,000 Descending Aus ATC (RADAR)
Thu 05:54:29 PM -34.7214 140.8652 267° West 412 474 34,200 -1,629 Descending Aus ATC (RADAR)
Thu 05:55:08 PM -34.7255 140.7755 267° West 398 458 33,200 -1,629 Descending Aus ATC (RADAR)
Thu 05:55:39 PM -34.7281 140.7091 267° West 395 455 32,300 -1,662 Descending Aus ATC (RADAR)
Thu 05:56:13 PM -34.7314 140.6341 267° West 383 441 31,400 -1,511 Descending Aus ATC (RADAR)
Thu 05:57:58 PM -34.7400 140.4222 267° West 348 400 28,800 -1,548 Descending Aus ATC (RADAR)
Thu 05:58:48 PM -34.7441 140.3278 268° West 335 386 27,400 -1,832 Descending Aus ATC (RADAR)
Thu 05:59:33 PM -34.7470 140.2440 267° West 332 382 25,900 -1,948 Descending Aus ATC (RADAR)
Thu 06:00:05 PM -34.7494 140.1890 266° West 328 377 24,900 -1,463 Descending Aus ATC (RADAR)
Thu 06:00:55 PM -34.7521 140.1340 268° West 327 376 23,900 -1,500 Descending Aus ATC (RADAR)
Thu 06:02:57 PM -34.7581 139.9347 267° West 320 368 20,600 -1,856 Descending Aus ATC (RADAR)
Thu 06:03:56 PM -34.7641 139.8009 268° West 318 366 18,300 -2,257 Descending Aus ATC (RADAR)
Thu 06:04:38 PM -34.7668 139.6981 268° West 303 349 16,800 -1,974 Descending Aus ATC (RADAR)
Thu 06:05:12 PM -34.7687 139.6394 267° West 300 345 15,800 -1,714 Descending Aus ATC (RADAR)
Thu 06:05:48 PM -34.7714 139.5816 268° West 295 339 14,800 -1,714 Descending Aus ATC (RADAR)
Thu 06:06:22 PM -34.7731 139.5241 268° West 294 338 13,800 -1,618 Descending Aus ATC (RADAR)
Thu 06:07:17 PM -34.7760 139.4363 268° West 286 329 12,400 -1,533 Descending Aus ATC (RADAR)
Thu 06:07:52 PM -34.7777 139.3813 269° West 281 323 11,500 -1,371 Descending Aus ATC (RADAR)
Thu 06:08:27 PM -34.7788 139.3273 268° West 274 315 10,800 -1,543 Descending Aus ATC (RADAR)
Thu 06:09:02 PM -34.7802 139.2743 269° West 272 313 9,700 -1,286 Descending Aus ATC (RADAR)
Thu 06:09:37 PM -34.7810 139.2218 268° West 268 308 9,300 -676 Descending Aus ATC (RADAR)
Thu 06:10:13 PM -34.7824 139.1689 269° West 269 310 8,900 -870 Descending Aus ATC (RADAR)
Thu 06:10:46 PM -34.7835 139.1167 268° West 266 306 8,300 -1,130 Descending Aus ATC (RADAR)
Thu 06:11:22 PM -34.7847 139.0643 269° West 267 307 7,600 -1,248 Descending Aus ATC (RADAR)
Thu 06:12:27 PM -34.7866 138.9691 269° West 261 300 6,200 -1,320 Descending Aus ATC (RADAR)
Thu 06:13:02 PM -34.7873 138.9192 269° West 255 293 5,400 -1,292 Descending Aus ATC (RADAR)
Thu 06:13:32 PM -34.7880 138.8776 268° West 249 287 4,800 -923 Descending Aus ATC (RADAR)
Thu 06:14:07 PM -34.7893 138.8318 269° West 234 269 4,400 -592 Descending Aus ATC (RADAR)
Thu 06:14:43 PM -34.7900 138.7896 265° West 215 247 4,100 -429 Descending Aus ATC (RADAR)
Thu 06:15:17 PM -34.7924 138.7528 226° Southwest 189 217 3,900 -600 Descending Aus ATC (RADAR)
Thu 06:15:53 PM -34.8121 138.7279 225° Southwest 175 201 3,400 -686 Descending Aus ATC (RADAR)
Thu 06:16:27 PM -34.8309 138.7050 232° Southwest 166 191 3,100 -614 Descending Aus ATC (RADAR)
Thu 06:17:21 PM -34.8561 138.6660 230° Southwest 158 182 2,500 -606 Descending Aus ATC (RADAR)
Thu 06:18:06 PM -34.8738 138.6406 232° Southwest 131 151 2,100 -560 Descending Aus ATC (RADAR)
Thu 06:18:36 PM -34.8842 138.6244 229° Southwest 122 140 1,800 -519 Descending Aus ATC (RADAR)
Thu 06:19:27 PM -34.9021 138.5991 230° Southwest 121 139 1,400 -623 Descending Aus ATC (RADAR)
Thu 06:20:22 PM -34.9213 138.5713 230° Southwest 118 136 700 -727 Descending Aus ATC (RADAR)
Thu 06:21:06 PM -34.9371 138.5484 230° Southwest 118 136 200 -682 Descending Aus ATC (RADAR)

Login

Don't have an account? Register now (free) for customized features, flight alerts, and more!